Time;durP1;ratioP1;P1;durP2;ratioP2;P2;SDS_P1;SDS_P2;PMS_P1;PMS_P2;Temp;Humidity;BMP_temperature;BMP_pressure;BME280_temperature;BME280_humidity;BME280_pressure;Samples;Min_cycle;Max_cycle;Signal;HPM_P1;HPM_P2
2023/04/14 00:00:36;;;;;;;5.83;2.83;;;4.10;99.90;;;;;;5035625;28;21041;-76
2023/04/14 00:03:03;;;;;;;2.83;2.57;;;4.00;99.90;;;;;;5038965;28;20487;-76
2023/04/14 00:05:31;;;;;;;3.50;2.93;;;4.00;99.90;;;;;;5038518;28;20466;-76
2023/04/14 00:08:00;;;;;;;4.40;3.13;;;4.00;99.90;;;;;;5042494;28;21051;-76
2023/04/14 00:10:28;;;;;;;4.30;2.73;;;3.90;99.90;;;;;;5038112;28;21365;-76
2023/04/14 00:12:55;;;;;;;6.50;3.43;;;3.90;99.90;;;;;;5043900;28;20913;-76
2023/04/14 00:15:22;;;;;;;3.60;3.30;;;3.90;99.90;;;;;;5037966;28;20481;-76
2023/04/14 00:17:49;;;;;;;3.03;2.30;;;4.00;99.90;;;;;;5035422;28;20477;-76
2023/04/14 00:20:16;;;;;;;5.03;2.40;;;4.00;99.90;;;;;;5033088;28;20472;-76
2023/04/14 00:22:43;;;;;;;4.50;3.17;;;3.90;99.90;;;;;;5038491;28;20489;-75
2023/04/14 00:25:11;;;;;;;3.37;2.83;;;4.00;99.90;;;;;;5037202;28;20536;-76
2023/04/14 00:27:38;;;;;;;2.40;2.17;;;3.90;99.90;;;;;;5042700;28;20453;-75
2023/04/14 00:30:06;;;;;;;2.90;2.50;;;3.90;99.90;;;;;;5033859;28;20515;-76
2023/04/14 00:32:33;;;;;;;5.00;3.17;;;3.90;99.90;;;;;;5042347;28;20451;-76
2023/04/14 00:35:02;;;;;;;2.63;2.43;;;3.90;99.90;;;;;;5036837;28;20969;-76
2023/04/14 00:37:29;;;;;;;3.13;2.00;;;3.90;99.90;;;;;;5033999;28;20471;-76
2023/04/14 00:39:56;;;;;;;3.60;2.80;;;3.90;99.90;;;;;;5037536;28;20481;-76
2023/04/14 00:42:25;;;;;;;3.37;2.90;;;3.90;99.90;;;;;;5040685;28;20949;-76
2023/04/14 00:44:51;;;;;;;2.37;1.97;;;3.80;99.90;;;;;;5042917;28;20453;-76
2023/04/14 00:47:21;;;;;;;3.30;2.83;;;3.80;99.90;;;;;;5038229;28;20445;-76
2023/04/14 00:49:49;;;;;;;4.60;2.20;;;3.80;99.90;;;;;;5040499;28;20536;-75
2023/04/14 00:52:16;;;;;;;2.93;2.57;;;3.80;99.90;;;;;;5030617;28;20454;-76
2023/04/14 00:54:43;;;;;;;2.63;2.43;;;3.90;99.90;;;;;;5039641;28;20456;-75
2023/04/14 00:57:10;;;;;;;4.30;2.23;;;3.80;99.90;;;;;;5035010;28;20971;-75
2023/04/14 00:59:39;;;;;;;3.53;2.83;;;3.80;99.90;;;;;;5043804;28;20758;-76
2023/04/14 01:02:06;;;;;;;2.80;2.30;;;3.70;99.90;;;;;;5041651;28;20464;-76
2023/04/14 01:04:33;;;;;;;4.30;2.70;;;3.70;99.90;;;;;;5043633;28;20454;-76
2023/04/14 01:07:00;;;;;;;2.17;1.97;;;3.70;99.90;;;;;;5031707;28;20531;-76
2023/04/14 01:09:27;;;;;;;3.50;2.73;;;3.70;99.90;;;;;;5039724;28;20449;-76
2023/04/14 01:12:01;;;;;;;2.03;1.83;;;3.70;99.90;;;;;;5041197;28;20454;-76
2023/04/14 01:14:40;;;;;;;2.23;2.07;;;3.70;99.90;;;;;;5035237;28;20488;-76
2023/04/14 01:17:14;;;;;;;6.37;2.63;;;3.60;99.90;;;;;;5038961;28;20911;-76
2023/04/14 01:19:58;;;;;;;2.90;2.37;;;3.60;99.90;;;;;;5044712;28;20556;-76
2023/04/14 01:22:29;;;;;;;5.23;2.00;;;3.60;99.90;;;;;;5040487;28;20481;-76
2023/04/14 01:25:20;;;;;;;2.63;1.80;;;3.40;99.90;;;;;;5040730;28;20893;-77
2023/04/14 01:28:04;;;;;;;1.07;1.07;;;3.30;99.90;;;;;;5035478;28;20536;-76
2023/04/14 01:30:42;;;;;;;2.27;2.07;;;3.10;99.90;;;;;;5040450;28;20926;-76
2023/04/14 01:33:18;;;;;;;1.37;1.10;;;3.00;99.90;;;;;;5041147;28;21235;-76
2023/04/14 01:35:49;;;;;;;2.73;2.30;;;3.00;99.90;;;;;;5046755;28;20449;-76
2023/04/14 01:38:23;;;;;;;1.80;1.10;;;3.00;99.90;;;;;;5040937;28;20510;-76
2023/04/14 01:40:53;;;;;;;3.53;2.03;;;3.00;99.90;;;;;;5045010;28;20457;-76
2023/04/14 01:43:25;;;;;;;1.70;1.60;;;2.90;99.90;;;;;;5043154;28;20520;-76
2023/04/14 01:45:55;;;;;;;2.87;2.50;;;2.90;99.90;;;;;;5035658;28;20445;-76
2023/04/14 01:48:25;;;;;;;1.67;1.53;;;2.90;99.90;;;;;;5045264;28;20453;-76
2023/04/14 01:50:54;;;;;;;1.67;1.57;;;2.80;99.90;;;;;;5042797;28;20445;-76
2023/04/14 01:53:23;;;;;;;1.87;1.77;;;2.80;99.90;;;;;;5036043;28;20453;-76
2023/04/14 01:55:52;;;;;;;2.13;1.47;;;2.80;99.90;;;;;;5043844;28;20851;-76
2023/04/14 01:58:20;;;;;;;1.37;1.27;;;2.80;99.90;;;;;;5043841;28;20453;-76
2023/04/14 02:00:49;;;;;;;3.00;2.20;;;2.70;99.90;;;;;;5041255;28;20545;-76
2023/04/14 02:03:18;;;;;;;1.60;1.50;;;2.70;99.90;;;;;;5044407;28;20498;-76
2023/04/14 02:05:48;;;;;;;1.70;1.60;;;2.70;99.90;;;;;;5042948;28;20464;-76
2023/04/14 02:08:16;;;;;;;2.47;1.53;;;2.80;99.90;;;;;;5045354;28;20453;-76
2023/04/14 02:10:46;;;;;;;1.47;1.40;;;2.70;99.90;;;;;;5044771;28;20929;-76
2023/04/14 02:13:15;;;;;;;1.37;1.30;;;2.70;99.90;;;;;;5043118;28;20972;-76
2023/04/14 02:15:43;;;;;;;2.23;1.87;;;2.70;99.90;;;;;;5044577;28;20444;-75
2023/04/14 02:18:10;;;;;;;1.10;1.00;;;2.70;99.90;;;;;;5045716;28;20445;-75
2023/04/14 02:20:42;;;;;;;1.20;1.10;;;2.80;99.90;;;;;;5037608;28;20472;-75
2023/04/14 02:23:12;;;;;;;1.80;1.63;;;2.70;99.90;;;;;;5041719;28;20546;-76
2023/04/14 02:25:44;;;;;;;1.43;1.33;;;2.70;99.90;;;;;;5042908;28;20464;-75
2023/04/14 02:28:18;;;;;;;2.20;2.03;;;2.70;99.90;;;;;;5042755;28;20441;-75
2023/04/14 02:30:48;;;;;;;1.43;0.97;;;2.70;99.90;;;;;;5038432;28;20806;-76
2023/04/14 02:33:19;;;;;;;2.07;1.87;;;2.60;99.90;;;;;;5041265;28;20454;-76
2023/04/14 02:35:48;;;;;;;2.07;1.93;;;2.60;99.90;;;;;;5033438;28;20460;-75
2023/04/14 02:38:22;;;;;;;1.37;1.27;;;2.60;99.90;;;;;;5040868;28;20983;-75
2023/04/14 02:40:50;;;;;;;1.57;1.47;;;2.70;99.90;;;;;;5043781;28;20457;-76
2023/04/14 02:43:20;;;;;;;3.63;3.20;;;2.70;99.90;;;;;;5032338;28;20552;-76
2023/04/14 02:45:49;;;;;;;1.80;1.70;;;2.60;99.90;;;;;;5046482;28;20453;-76
2023/04/14 02:48:19;;;;;;;2.77;1.47;;;2.60;99.90;;;;;;5035197;28;20576;-77
2023/04/14 02:50:49;;;;;;;2.90;1.43;;;2.60;99.90;;;;;;5043577;28;20546;-76
2023/04/14 02:53:21;;;;;;;0.90;0.80;;;2.60;99.90;;;;;;5040974;28;20459;-76
2023/04/14 02:55:50;;;;;;;1.00;0.90;;;2.60;99.90;;;;;;5045304;28;20556;-76
2023/04/14 02:58:18;;;;;;;0.80;0.80;;;2.60;99.90;;;;;;5043099;28;20524;-76
2023/04/14 03:00:46;;;;;;;1.30;0.90;;;2.60;99.90;;;;;;5043007;28;20453;-77
2023/04/14 03:03:14;;;;;;;0.73;0.73;;;2.70;99.90;;;;;;5036568;28;20481;-77
2023/04/14 03:05:43;;;;;;;3.67;1.00;;;2.70;99.90;;;;;;5040159;28;20482;-76
2023/04/14 03:08:14;;;;;;;1.13;0.93;;;2.70;99.90;;;;;;5035130;28;20499;-76
2023/04/14 03:10:44;;;;;;;1.30;1.10;;;2.70;99.90;;;;;;5044900;28;20489;-76
2023/04/14 03:13:14;;;;;;;1.30;1.10;;;2.70;99.90;;;;;;5041540;28;20503;-77
2023/04/14 03:15:42;;;;;;;1.90;1.57;;;2.70;99.90;;;;;;5044580;28;20514;-76
2023/04/14 03:18:10;;;;;;;2.10;1.40;;;2.70;99.90;;;;;;5039748;28;20461;-76
2023/04/14 03:20:37;;;;;;;1.63;1.43;;;2.80;99.90;;;;;;5043916;28;20901;-76
2023/04/14 03:23:07;;;;;;;1.60;1.50;;;2.70;99.90;;;;;;5046060;28;20642;-77
2023/04/14 03:25:36;;;;;;;1.50;1.33;;;2.80;99.90;;;;;;5041693;28;20460;-77
2023/04/14 03:28:09;;;;;;;2.20;1.60;;;2.70;99.90;;;;;;5043369;28;20954;-76
2023/04/14 03:30:42;;;;;;;2.20;1.70;;;2.70;99.90;;;;;;5040205;28;21044;-77
2023/04/14 03:33:11;;;;;;;2.63;1.83;;;2.80;99.90;;;;;;5037065;28;20461;-76
2023/04/14 03:35:40;;;;;;;1.60;1.13;;;2.70;99.90;;;;;;5042781;28;20925;-76
2023/04/14 03:38:09;;;;;;;1.37;1.17;;;2.70;99.90;;;;;;5044341;28;20484;-76
2023/04/14 03:40:40;;;;;;;1.97;1.70;;;2.70;99.90;;;;;;5039272;28;20510;-76
2023/04/14 03:43:11;;;;;;;1.67;1.57;;;2.80;99.90;;;;;;5040888;28;20511;-77
2023/04/14 03:45:39;;;;;;;1.70;1.57;;;2.80;99.90;;;;;;5032384;28;20449;-77
2023/04/14 03:48:10;;;;;;;2.17;1.97;;;2.70;99.90;;;;;;5044282;28;20564;-76
2023/04/14 03:50:40;;;;;;;2.13;2.03;;;2.70;99.90;;;;;;5033925;28;20460;-76
2023/04/14 03:53:09;;;;;;;1.23;1.13;;;2.70;99.90;;;;;;5042404;28;20457;-76
2023/04/14 03:55:36;;;;;;;1.33;1.23;;;2.80;99.90;;;;;;5042367;28;20446;-77
2023/04/14 03:58:07;;;;;;;2.13;1.73;;;2.80;99.90;;;;;;5044343;28;20556;-76
2023/04/14 04:00:37;;;;;;;1.37;1.03;;;2.80;99.90;;;;;;5037555;28;20473;-77
2023/04/14 04:03:05;;;;;;;3.70;1.40;;;2.80;99.90;;;;;;5036809;28;20450;-77
2023/04/14 04:05:33;;;;;;;2.30;1.27;;;2.80;99.90;;;;;;5036811;28;20829;-76
2023/04/14 04:08:02;;;;;;;1.00;0.90;;;2.80;99.90;;;;;;5044843;28;20464;-77
2023/04/14 04:10:32;;;;;;;1.23;1.13;;;2.80;99.90;;;;;;5038470;28;20558;-77
2023/04/14 04:13:01;;;;;;;1.00;0.90;;;2.80;99.90;;;;;;5041093;28;20449;-76
2023/04/14 04:15:28;;;;;;;2.03;1.83;;;2.80;99.90;;;;;;5034263;28;21168;-77
2023/04/14 04:17:59;;;;;;;1.50;1.10;;;2.80;99.90;;;;;;5040680;28;20880;-77
2023/04/14 04:20:27;;;;;;;1.23;1.20;;;2.80;99.90;;;;;;5036394;28;20481;-76
2023/04/14 04:22:56;;;;;;;1.60;1.50;;;2.90;99.90;;;;;;5039333;28;20515;-77
2023/04/14 04:25:23;;;;;;;1.57;1.43;;;2.90;99.90;;;;;;5043012;28;20484;-77
2023/04/14 04:27:50;;;;;;;1.63;1.30;;;2.90;99.90;;;;;;5031935;28;20469;-77
2023/04/14 04:30:19;;;;;;;1.10;1.00;;;2.80;99.90;;;;;;5037177;28;20449;-77
2023/04/14 04:32:46;;;;;;;1.73;1.40;;;2.80;99.90;;;;;;5042194;28;20452;-76
2023/04/14 04:35:16;;;;;;;1.33;1.10;;;2.90;99.90;;;;;;5037471;28;20464;-76
2023/04/14 04:37:43;;;;;;;1.67;1.50;;;2.90;99.90;;;;;;5038898;28;20536;-76
2023/04/14 04:40:11;;;;;;;1.40;1.30;;;2.90;99.90;;;;;;5041261;28;20563;-76
2023/04/14 04:42:41;;;;;;;1.20;1.10;;;2.90;99.90;;;;;;5033282;28;20530;-77
2023/04/14 04:45:09;;;;;;;1.37;1.27;;;2.90;99.90;;;;;;5037655;28;20489;-76
2023/04/14 04:47:36;;;;;;;1.87;1.70;;;2.90;99.90;;;;;;5037259;28;21018;-76
2023/04/14 04:50:04;;;;;;;1.20;1.10;;;2.90;99.90;;;;;;5044223;28;20535;-76
2023/04/14 04:52:32;;;;;;;1.83;1.17;;;2.90;99.90;;;;;;5034288;28;20496;-77
2023/04/14 04:54:59;;;;;;;1.40;1.30;;;2.90;99.90;;;;;;5042865;28;20953;-76
2023/04/14 04:57:26;;;;;;;1.50;1.40;;;2.90;99.90;;;;;;5035760;28;20480;-76
2023/04/14 04:59:53;;;;;;;2.00;1.80;;;3.00;99.90;;;;;;5042755;28;20490;-77
2023/04/14 05:02:20;;;;;;;1.60;1.50;;;2.90;99.90;;;;;;5034770;28;21136;-77
2023/04/14 05:04:48;;;;;;;1.00;0.90;;;3.00;99.90;;;;;;5046818;28;20489;-76
2023/04/14 05:07:15;;;;;;;1.40;1.30;;;2.90;99.90;;;;;;5046550;28;20471;-76
2023/04/14 05:09:43;;;;;;;1.67;1.57;;;2.90;99.90;;;;;;5047472;28;20457;-77
2023/04/14 05:12:10;;;;;;;1.33;1.23;;;2.90;99.90;;;;;;5041941;28;20473;-77
2023/04/14 05:14:37;;;;;;;2.23;1.90;;;2.90;99.90;;;;;;5042355;28;20844;-77
2023/04/14 05:17:04;;;;;;;3.00;2.00;;;2.90;99.90;;;;;;5039360;28;20541;-77
2023/04/14 05:19:31;;;;;;;2.27;1.40;;;3.00;99.90;;;;;;5041930;28;20480;-76
2023/04/14 05:21:58;;;;;;;1.77;1.43;;;3.00;99.90;;;;;;5055205;28;20963;-76
2023/04/14 05:24:26;;;;;;;2.60;1.57;;;3.00;99.90;;;;;;5047976;28;20512;-77
2023/04/14 05:26:54;;;;;;;9.20;5.83;;;3.00;99.90;;;;;;5041527;28;20471;-76
2023/04/14 05:29:21;;;;;;;8.20;5.00;;;3.00;99.90;;;;;;5046620;28;20456;-76
2023/04/14 05:31:48;;;;;;;1.80;1.50;;;3.10;99.90;;;;;;5049951;28;20449;-77
2023/04/14 05:34:15;;;;;;;1.83;1.73;;;3.10;99.90;;;;;;5045926;28;21107;-77
2023/04/14 05:36:42;;;;;;;1.23;1.13;;;3.20;99.90;;;;;;5042489;28;20460;-77
2023/04/14 05:39:09;;;;;;;1.53;1.43;;;3.20;99.90;;;;;;5046129;28;20504;-77
2023/04/14 05:41:36;;;;;;;2.53;1.50;;;3.20;99.90;;;;;;5043532;28;20754;-77
2023/04/14 05:44:04;;;;;;;1.50;1.30;;;3.20;99.90;;;;;;5045228;28;20551;-76
2023/04/14 05:46:32;;;;;;;1.73;1.63;;;3.20;99.90;;;;;;5041652;28;20510;-77
2023/04/14 05:48:59;;;;;;;2.27;1.70;;;3.30;99.90;;;;;;5048455;28;20457;-77
2023/04/14 05:51:27;;;;;;;1.70;1.60;;;3.30;99.90;;;;;;5038599;28;20462;-77
2023/04/14 05:53:54;;;;;;;1.77;1.50;;;3.30;99.90;;;;;;5049909;28;20461;-77
2023/04/14 05:56:21;;;;;;;2.17;1.70;;;3.30;99.90;;;;;;5044399;28;20689;-77
2023/04/14 05:58:48;;;;;;;1.70;1.50;;;3.30;99.90;;;;;;5047548;28;20464;-77
2023/04/14 06:01:16;;;;;;;2.77;1.73;;;3.30;99.90;;;;;;5048416;28;21222;-77
2023/04/14 06:03:43;;;;;;;1.23;1.13;;;3.40;99.90;;;;;;5041738;28;20522;-76
2023/04/14 06:06:10;;;;;;;1.60;1.03;;;3.40;99.90;;;;;;5041608;28;20460;-77
2023/04/14 06:08:37;;;;;;;1.70;0.97;;;3.40;99.90;;;;;;5048485;28;20448;-77
2023/04/14 06:11:04;;;;;;;1.37;1.27;;;3.40;99.90;;;;;;5048639;28;20851;-77
2023/04/14 06:13:31;;;;;;;4.20;1.20;;;3.40;99.90;;;;;;5049708;28;20566;-77
2023/04/14 06:15:59;;;;;;;1.40;1.30;;;3.50;99.90;;;;;;5043377;28;20465;-77
2023/04/14 06:18:27;;;;;;;4.03;1.13;;;3.50;99.90;;;;;;5043605;28;20747;-77
2023/04/14 06:20:54;;;;;;;0.83;0.80;;;3.50;99.90;;;;;;5043729;28;20532;-77
2023/04/14 06:23:23;;;;;;;1.43;1.20;;;3.50;99.90;;;;;;5045742;28;20834;-77
2023/04/14 06:25:51;;;;;;;1.07;0.70;;;3.50;99.90;;;;;;5041845;28;20488;-77
2023/04/14 06:28:22;;;;;;;1.47;1.00;;;3.60;99.90;;;;;;5045227;28;20461;-77
2023/04/14 06:30:49;;;;;;;1.23;1.07;;;3.60;99.90;;;;;;5035711;28;20543;-77
2023/04/14 06:33:16;;;;;;;2.30;1.37;;;3.70;99.90;;;;;;5033571;28;20458;-77
2023/04/14 06:35:45;;;;;;;1.60;1.40;;;3.80;99.90;;;;;;5050379;28;20449;-77
2023/04/14 06:38:12;;;;;;;0.80;0.80;;;3.80;99.90;;;;;;5039187;28;20884;-77
2023/04/14 06:40:38;;;;;;;2.00;1.50;;;3.80;99.90;;;;;;5044030;28;20511;-77
2023/04/14 06:43:09;;;;;;;1.70;1.53;;;3.80;99.90;;;;;;5043590;28;20490;-76
2023/04/14 06:45:36;;;;;;;1.73;1.63;;;3.90;99.90;;;;;;5034233;28;20488;-76
2023/04/14 06:48:04;;;;;;;4.13;1.20;;;3.90;99.90;;;;;;5043844;28;20511;-76
2023/04/14 06:50:31;;;;;;;1.23;1.23;;;3.90;99.90;;;;;;5046039;28;20460;-76
2023/04/14 06:52:59;;;;;;;1.70;1.33;;;4.00;99.90;;;;;;5040869;28;20795;-76
2023/04/14 06:55:26;;;;;;;2.47;1.07;;;4.00;99.90;;;;;;5039166;28;20908;-76
2023/04/14 06:57:53;;;;;;;2.70;1.17;;;4.00;99.90;;;;;;5043963;28;20669;-76
2023/04/14 07:00:20;;;;;;;2.20;2.00;;;4.00;99.90;;;;;;5038076;28;20552;-76
2023/04/14 07:02:47;;;;;;;31.77;21.97;;;4.00;99.90;;;;;;5042609;28;20531;-76
2023/04/14 07:05:16;;;;;;;11.13;10.03;;;4.00;99.90;;;;;;5044726;28;20605;-76
2023/04/14 07:07:43;;;;;;;28.97;24.50;;;4.10;99.90;;;;;;5042306;28;21177;-76
2023/04/14 07:10:11;;;;;;;3.73;3.40;;;4.00;99.90;;;;;;5042154;28;20553;-76
2023/04/14 07:12:38;;;;;;;3.83;2.73;;;4.00;99.90;;;;;;5037589;28;20528;-76
2023/04/14 07:15:06;;;;;;;3.63;3.30;;;4.00;99.90;;;;;;5040952;28;20446;-75
2023/04/14 07:17:35;;;;;;;8.33;7.53;;;4.00;99.90;;;;;;5041360;28;20504;-76
2023/04/14 07:20:04;;;;;;;9.10;8.20;;;3.80;99.90;;;;;;5043579;28;20462;-75
2023/04/14 07:22:32;;;;;;;6.37;5.80;;;3.70;99.90;;;;;;5042713;28;21104;-76
2023/04/14 07:24:59;;;;;;;4.60;2.50;;;3.70;99.90;;;;;;5043980;28;20957;-75
2023/04/14 07:27:27;;;;;;;2.10;1.93;;;3.70;99.90;;;;;;5034340;28;20459;-76
2023/04/14 07:29:54;;;;;;;4.43;4.13;;;3.60;99.90;;;;;;5038711;28;20468;-76
2023/04/14 07:32:21;;;;;;;3.30;3.10;;;3.60;99.90;;;;;;5043804;28;20499;-76
2023/04/14 07:34:48;;;;;;;3.43;3.23;;;3.60;99.90;;;;;;5041178;28;21058;-76
2023/04/14 07:37:16;;;;;;;5.17;4.07;;;3.70;99.90;;;;;;5046140;28;20895;-76
2023/04/14 07:39:43;;;;;;;3.70;3.43;;;3.60;99.90;;;;;;5035229;28;20465;-76
2023/04/14 07:42:10;;;;;;;5.43;4.93;;;3.50;99.90;;;;;;5042370;28;20502;-76
2023/04/14 07:44:38;;;;;;;2.23;2.13;;;3.50;99.90;;;;;;5041448;28;20559;-76
2023/04/14 07:47:05;;;;;;;4.67;2.80;;;3.50;99.90;;;;;;5047367;28;20845;-76
2023/04/14 07:49:32;;;;;;;7.00;3.47;;;3.50;99.90;;;;;;5043926;28;20956;-76
2023/04/14 07:52:00;;;;;;;0.80;0.80;;;3.60;99.90;;;;;;5042100;28;20526;-76
2023/04/14 07:54:27;;;;;;;3.60;1.67;;;3.50;99.90;;;;;;5043772;28;20477;-76
2023/04/14 07:56:54;;;;;;;1.67;1.53;;;3.50;99.90;;;;;;5045054;28;20549;-76
2023/04/14 07:59:21;;;;;;;1.13;1.10;;;3.50;99.90;;;;;;5047752;28;20469;-76
2023/04/14 08:01:50;;;;;;;1.20;1.10;;;3.40;99.90;;;;;;5039200;28;20515;-76
2023/04/14 08:04:17;;;;;;;1.47;1.37;;;3.40;99.90;;;;;;5044392;28;20477;-76
2023/04/14 08:06:43;;;;;;;2.53;1.60;;;3.30;99.90;;;;;;5042339;28;20542;-76
2023/04/14 08:09:11;;;;;;;1.33;0.97;;;3.20;99.90;;;;;;5047573;28;20534;-76
2023/04/14 08:11:38;;;;;;;3.53;1.70;;;3.20;99.90;;;;;;5044863;28;20476;-76
2023/04/14 08:14:04;;;;;;;1.20;1.10;;;3.20;99.90;;;;;;5032132;28;20470;-76
2023/04/14 08:16:35;;;;;;;3.23;2.13;;;3.10;99.90;;;;;;5039528;28;20624;-76
2023/04/14 08:19:03;;;;;;;2.13;1.93;;;3.20;99.90;;;;;;5044491;28;20456;-76
2023/04/14 08:21:31;;;;;;;2.80;1.23;;;3.30;99.90;;;;;;5042166;28;20534;-77
2023/04/14 08:23:58;;;;;;;3.33;2.03;;;3.20;99.90;;;;;;5042916;28;20473;-76
2023/04/14 08:26:26;;;;;;;4.47;1.83;;;3.30;99.90;;;;;;5035337;28;20512;-76
2023/04/14 08:28:53;;;;;;;1.33;1.03;;;3.30;99.90;;;;;;5040471;28;20493;-76
2023/04/14 08:31:23;;;;;;;1.30;1.07;;;3.30;99.90;;;;;;5042063;28;20492;-76
2023/04/14 08:33:50;;;;;;;0.70;0.70;;;3.30;99.90;;;;;;5035444;28;20457;-75
2023/04/14 08:36:18;;;;;;;0.70;0.70;;;3.20;99.90;;;;;;5045412;28;21144;-76
2023/04/14 08:38:45;;;;;;;0.57;0.57;;;3.20;99.90;;;;;;5035055;28;20526;-77
2023/04/14 08:41:13;;;;;;;1.00;1.00;;;3.20;99.90;;;;;;5047133;28;20461;-75
2023/04/14 08:43:40;;;;;;;0.50;0.40;;;3.30;99.90;;;;;;5034336;28;20471;-76
2023/04/14 08:46:10;;;;;;;0.60;0.60;;;3.30;99.90;;;;;;5040756;28;20552;-76
2023/04/14 08:48:38;;;;;;;0.60;0.60;;;3.40;99.90;;;;;;5040665;28;20503;-76
2023/04/14 08:51:10;;;;;;;0.60;0.60;;;3.40;99.90;;;;;;5043929;28;20466;-76
2023/04/14 08:53:44;;;;;;;0.87;0.70;;;3.30;99.90;;;;;;5042545;28;20449;-76
2023/04/14 08:56:12;;;;;;;1.00;0.60;;;3.30;99.90;;;;;;5046472;28;20485;-76
2023/04/14 08:58:40;;;;;;;1.53;0.70;;;3.20;99.90;;;;;;5045464;28;20512;-78
2023/04/14 09:01:08;;;;;;;0.80;0.80;;;3.30;99.90;;;;;;5052315;28;20465;-75
2023/04/14 09:03:37;;;;;;;0.50;0.50;;;3.30;99.90;;;;;;5035361;28;20566;-76
2023/04/14 09:06:04;;;;;;;0.77;0.60;;;3.40;99.90;;;;;;5029692;28;20801;-77
2023/04/14 09:08:33;;;;;;;0.70;0.63;;;3.30;99.90;;;;;;5044098;28;20461;-77
2023/04/14 09:11:02;;;;;;;0.60;0.60;;;3.40;99.90;;;;;;5035958;28;20564;-76
2023/04/14 09:13:30;;;;;;;0.50;0.50;;;3.20;99.90;;;;;;5037571;28;20487;-77
2023/04/14 09:15:57;;;;;;;2.10;2.00;;;3.30;99.90;;;;;;5043481;28;20539;-77
2023/04/14 09:18:25;;;;;;;0.53;0.53;;;3.20;99.90;;;;;;5041657;28;20948;-77
2023/04/14 09:20:52;;;;;;;0.60;0.50;;;3.20;99.90;;;;;;5033987;28;20840;-76
2023/04/14 09:23:21;;;;;;;0.50;0.47;;;3.30;99.90;;;;;;5042159;28;21152;-76
2023/04/14 09:25:48;;;;;;;1.53;1.07;;;3.30;99.90;;;;;;5031484;28;20900;-77
2023/04/14 09:28:16;;;;;;;0.60;0.60;;;3.40;99.90;;;;;;5045019;28;20541;-77
2023/04/14 09:30:43;;;;;;;0.90;0.60;;;3.30;99.90;;;;;;5039016;28;20461;-77
2023/04/14 09:33:19;;;;;;;1.60;0.70;;;3.30;99.90;;;;;;5033408;28;20497;-76
2023/04/14 09:35:47;;;;;;;1.90;0.50;;;3.30;99.90;;;;;;5039445;28;20465;-76
2023/04/14 09:38:15;;;;;;;3.53;0.50;;;3.40;99.90;;;;;;5045708;28;20534;-76
2023/04/14 09:40:43;;;;;;;0.80;0.80;;;3.50;99.90;;;;;;5028164;28;20504;-77
2023/04/14 09:43:26;;;;;;;1.13;0.87;;;3.40;99.90;;;;;;5041216;28;20457;-76
2023/04/14 09:45:54;;;;;;;0.97;0.80;;;3.50;99.90;;;;;;5027764;28;20489;-76
2023/04/14 09:48:22;;;;;;;0.63;0.60;;;3.50;99.90;;;;;;5053785;28;20456;-76
2023/04/14 09:51:04;;;;;;;0.80;0.70;;;3.50;99.90;;;;;;5035615;28;20452;-76
2023/04/14 09:53:33;;;;;;;0.97;0.60;;;3.50;99.90;;;;;;5040326;28;20680;-75
2023/04/14 09:56:02;;;;;;;0.50;0.50;;;3.50;99.90;;;;;;5045250;28;20543;-76
2023/04/14 09:58:34;;;;;;;0.80;0.70;;;3.50;99.90;;;;;;5045057;28;20476;-76
2023/04/14 10:01:04;;;;;;;0.50;0.50;;;3.60;99.90;;;;;;5037989;28;20457;-76
2023/04/14 10:03:36;;;;;;;0.83;0.77;;;3.60;99.90;;;;;;5038540;28;20857;-75
2023/04/14 10:06:06;;;;;;;0.60;0.60;;;3.60;99.90;;;;;;5044157;28;20549;-76
2023/04/14 10:08:37;;;;;;;0.70;0.70;;;3.60;99.90;;;;;;5054867;28;20498;-76
2023/04/14 10:11:15;;;;;;;1.17;0.90;;;3.70;99.90;;;;;;5044893;28;20519;-76
2023/04/14 10:13:44;;;;;;;1.10;0.80;;;3.60;99.90;;;;;;5037635;28;20531;-76
2023/04/14 10:16:11;;;;;;;0.70;0.57;;;3.70;99.90;;;;;;5050039;28;20796;-76
2023/04/14 10:18:38;;;;;;;0.73;0.53;;;3.80;99.90;;;;;;5044690;28;20464;-76
2023/04/14 10:21:07;;;;;;;0.70;0.70;;;3.80;99.90;;;;;;5044866;28;20869;-76
2023/04/14 10:23:36;;;;;;;0.60;0.60;;;4.00;99.90;;;;;;5041558;28;20734;-76
2023/04/14 10:26:04;;;;;;;1.23;0.60;;;3.80;99.90;;;;;;5046674;28;20481;-76
2023/04/14 10:28:33;;;;;;;0.90;0.60;;;3.90;99.90;;;;;;5042887;28;20477;-76
2023/04/14 10:31:03;;;;;;;0.80;0.70;;;3.80;99.90;;;;;;5045191;28;20465;-76
2023/04/14 10:33:30;;;;;;;0.70;0.70;;;3.90;99.90;;;;;;5042901;28;20607;-76
2023/04/14 10:36:00;;;;;;;0.70;0.60;;;3.90;99.90;;;;;;5045228;28;20507;-76
2023/04/14 10:38:44;;;;;;;0.60;0.60;;;4.00;99.90;;;;;;5043264;28;20465;-76
2023/04/14 10:41:12;;;;;;;1.20;0.70;;;4.00;99.90;;;;;;5040481;28;20457;-76
2023/04/14 10:43:40;;;;;;;1.37;0.70;;;4.10;99.90;;;;;;5043810;28;20905;-76
2023/04/14 10:46:09;;;;;;;0.50;0.50;;;4.20;99.90;;;;;;5044034;28;20583;-76
2023/04/14 10:48:40;;;;;;;0.83;0.60;;;4.20;99.90;;;;;;5041445;28;20503;-76
2023/04/14 10:51:08;;;;;;;0.50;0.50;;;4.10;99.90;;;;;;5038810;28;20553;-76
2023/04/14 10:53:44;;;;;;;0.60;0.60;;;4.20;99.90;;;;;;5044324;28;20460;-76
2023/04/14 10:56:12;;;;;;;0.63;0.63;;;4.20;99.90;;;;;;5043655;28;20481;-76
2023/04/14 10:58:39;;;;;;;0.60;0.60;;;4.30;99.90;;;;;;5042005;28;20469;-76
2023/04/14 11:01:24;;;;;;;0.60;0.60;;;4.30;99.90;;;;;;5036639;28;20925;-76
2023/04/14 11:03:52;;;;;;;1.07;0.40;;;4.40;99.90;;;;;;5053812;28;20470;-76
2023/04/14 11:06:52;;;;;;;0.60;0.60;;;4.40;99.90;;;;;;5047115;28;20538;-76
2023/04/14 11:09:31;;;;;;;0.60;0.60;;;4.30;99.90;;;;;;5041671;28;20947;-76
2023/04/14 11:12:04;;;;;;;0.47;0.43;;;4.40;99.90;;;;;;5043367;28;20471;-77
2023/04/14 11:14:33;;;;;;;0.50;0.50;;;4.40;99.90;;;;;;5041927;28;20515;-77
2023/04/14 11:17:03;;;;;;;0.80;0.50;;;4.50;99.90;;;;;;5036852;28;20502;-76
2023/04/14 11:19:30;;;;;;;0.67;0.50;;;4.50;99.90;;;;;;5044993;28;20544;-76
2023/04/14 11:21:58;;;;;;;0.50;0.47;;;4.60;99.90;;;;;;5042934;28;20566;-76
2023/04/14 11:24:25;;;;;;;0.67;0.50;;;4.70;99.90;;;;;;5051924;28;21057;-76
2023/04/14 11:26:54;;;;;;;0.40;0.40;;;4.70;99.90;;;;;;5044011;28;20598;-76
2023/04/14 11:29:21;;;;;;;1.27;0.60;;;4.70;99.90;;;;;;5045062;28;20508;-76
2023/04/14 11:32:04;;;;;;;1.13;0.70;;;4.80;99.90;;;;;;5039677;28;20552;-76
2023/04/14 11:34:31;;;;;;;0.70;0.70;;;4.70;99.90;;;;;;5045381;28;20464;-77
2023/04/14 11:36:58;;;;;;;0.40;0.40;;;4.70;99.90;;;;;;5038281;28;20472;-76
2023/04/14 11:39:27;;;;;;;0.50;0.40;;;4.80;99.90;;;;;;5053331;28;20475;-76
2023/04/14 11:41:54;;;;;;;0.50;0.40;;;4.70;99.90;;;;;;5037671;28;20458;-76
2023/04/14 11:44:22;;;;;;;0.50;0.40;;;4.80;99.90;;;;;;5044333;28;20819;-77
2023/04/14 11:46:50;;;;;;;0.90;0.50;;;4.80;99.90;;;;;;5040780;28;20564;-76
2023/04/14 11:49:18;;;;;;;0.60;0.60;;;4.90;99.90;;;;;;5034464;28;20461;-77
2023/04/14 11:51:45;;;;;;;0.53;0.53;;;4.90;99.90;;;;;;5035824;28;20520;-76
2023/04/14 11:54:12;;;;;;;0.77;0.57;;;4.80;99.90;;;;;;5043897;28;20457;-76
2023/04/14 11:56:40;;;;;;;0.60;0.50;;;4.70;99.90;;;;;;5034862;28;20870;-76
2023/04/14 11:59:07;;;;;;;0.60;0.50;;;4.70;99.90;;;;;;5039466;28;20474;-76
2023/04/14 12:01:34;;;;;;;0.60;0.60;;;4.70;99.90;;;;;;5034004;28;20480;-76
2023/04/14 12:04:02;;;;;;;0.60;0.50;;;4.80;99.90;;;;;;5035001;28;20469;-76
2023/04/14 12:06:35;;;;;;;0.77;0.50;;;4.80;99.90;;;;;;5042112;28;20544;-77
2023/04/14 12:09:08;;;;;;;0.43;0.40;;;4.80;99.90;;;;;;5036234;28;21207;-77
2023/04/14 12:11:35;;;;;;;0.53;0.50;;;4.90;99.90;;;;;;5037518;28;20473;-76
2023/04/14 12:14:02;;;;;;;0.80;0.67;;;4.80;99.90;;;;;;5044398;28;20450;-76
2023/04/14 12:16:29;;;;;;;0.63;0.53;;;4.80;99.90;;;;;;5040918;28;20464;-76
2023/04/14 12:18:56;;;;;;;0.67;0.50;;;4.70;99.90;;;;;;5036735;28;20457;-76
2023/04/14 12:21:23;;;;;;;0.50;0.50;;;4.60;99.90;;;;;;5039368;28;20468;-76
2023/04/14 12:23:52;;;;;;;0.50;0.50;;;4.60;99.90;;;;;;5038227;28;20526;-77
2023/04/14 12:26:20;;;;;;;0.50;0.50;;;4.70;99.90;;;;;;5040420;28;20542;-77
2023/04/14 12:28:55;;;;;;;3.30;0.40;;;4.80;99.90;;;;;;5035669;28;20499;-76
2023/04/14 12:31:27;;;;;;;0.70;0.50;;;4.70;99.90;;;;;;5041395;28;20488;-76
2023/04/14 12:34:00;;;;;;;0.70;0.50;;;4.80;99.90;;;;;;5032273;28;20813;-76
2023/04/14 12:36:27;;;;;;;0.70;0.60;;;4.80;99.90;;;;;;5040702;28;20461;-76
2023/04/14 12:38:56;;;;;;;0.70;0.50;;;4.70;99.90;;;;;;5035362;28;20469;-77
2023/04/14 12:41:23;;;;;;;0.60;0.50;;;4.80;99.90;;;;;;5040188;28;20739;-77
2023/04/14 12:43:50;;;;;;;0.83;0.70;;;4.90;99.90;;;;;;5036521;28;20501;-76
2023/04/14 12:46:24;;;;;;;0.77;0.60;;;4.90;99.90;;;;;;5035673;28;21015;-76
2023/04/14 12:48:51;;;;;;;0.70;0.70;;;5.00;99.90;;;;;;5040829;28;20468;-76
2023/04/14 12:51:19;;;;;;;0.50;0.43;;;4.90;99.90;;;;;;5040117;28;20458;-76
2023/04/14 12:53:48;;;;;;;0.60;0.60;;;4.90;99.90;;;;;;5035898;28;20513;-77
2023/04/14 12:56:18;;;;;;;0.80;0.60;;;4.80;99.90;;;;;;5039896;28;20502;-77
2023/04/14 12:58:46;;;;;;;0.70;0.60;;;4.90;99.90;;;;;;5039562;28;20460;-77
2023/04/14 13:01:14;;;;;;;3.40;0.60;;;4.90;99.90;;;;;;5038553;28;20469;-77
2023/04/14 13:03:44;;;;;;;0.50;0.50;;;5.00;99.90;;;;;;5033649;28;20449;-76
2023/04/14 13:06:12;;;;;;;0.70;0.70;;;5.00;99.90;;;;;;5038380;28;20495;-77